LSZS/SMV METAR and TAF weather

Enter ICAO airport designator
Station Type Date Time Source
LSZS METAR 2021/10/24 21:50 UTC NOAA

LSZS 242150Z AUTO VRB01KT 9999 NSC M03/M06 Q1027


Station Type Date Time Source
LSZS Decoded METAR 2021/10/24 21:50 UTC NOAA

Station name not available
Oct 24, 2021 - 05:50 PM EDT / 2021.10.24 2150 UTC
Wind: Variable at 1 MPH (1 KT):0
Visibility: greater than 7 mile(s):0
Temperature: 26 F (-3 C)
Dew Point: 21 F (-6 C)
Relative Humidity: 79%
Pressure (altimeter): 30.33 in. Hg (1027 hPa)
ob: LSZS 242150Z AUTO VRB01KT 9999 NSC M03/M06 Q1027
cycle: 22

Station Type Date Time Source
LSZS TAF 2014/12/22 20:03 UTC NOAA

TAF
AMD LSZS 222054Z 2220/2224 CNL

Example: see airport list